• Join FlightAware (Why Join?)
  • Login
  • US Flag 
08:02PM EDT


 

Airport Tracker/Info


-or-


 

Live Flight TrackerFlight Track Log ✈ JAL96 ✈ 13-May-2014 ✈ RCSS / TSA - RJTT / HND

Flight Track Log - Related Links

Times and Time Zones

All times are in EDT time to prevent confusion due to time zone crossing. See the JAL96 flight status page for this flight to view local times or setup timezone preferences in your user account.

Time Position Orientation Groundspeed Altitude Reporting Facility
EDT Latitude Longitude Course Direction KTS MPH feet Rate Location/Type
08:54PM 25.3112 121.8938 52° Northeast  Level Estimated
08:55PM 25.3916 122.0081 52° Northeast  Level Estimated
08:56PM 25.4719 122.1226 52° Northeast  Level Estimated
08:57PM 25.5521 122.2372 52° Northeast  Level Estimated
08:58PM 25.6322 122.3520 52° Northeast  Level Estimated
08:59PM 25.7106 122.4646 52° Northeast  Level Estimated
09:00PM 25.7890 122.5774 52° Northeast  Level Estimated
09:01PM 25.8672 122.6903 52° Northeast  Level Estimated
09:02PM 25.9454 122.8033 52° Northeast  Level Estimated
09:03PM 26.0234 122.9165 52° Northeast  Level Estimated
09:04PM 26.1014 123.0299 53° Northeast  Level Estimated
09:05PM 26.1793 123.1434 53° Northeast  Level Estimated
09:06PM 26.2571 123.2570 53° Northeast  Level Estimated
09:07PM 26.3348 123.3708 53° Northeast  Level Estimated
09:08PM 26.4124 123.4848 53° Northeast  Level Estimated
09:09PM 26.4899 123.5989 53° Northeast  Level Estimated
09:10PM 26.5674 123.7132 53° Northeast  Level Estimated
09:11PM 26.6447 123.8276 53° Northeast  Level Estimated
09:12PM 26.7220 123.9422 53° Northeast  Level Estimated
09:13PM 26.7991 124.0569 53° Northeast  Level Estimated
09:14PM 26.8762 124.1718 53° Northeast  Level Estimated
09:15PM 26.9532 124.2868 53° Northeast  Level Estimated
09:16PM 27.0301 124.4020 53° Northeast  Level Estimated
09:17PM 27.1068 124.5174 53° Northeast  Level Estimated
09:18PM 27.1851 124.6353 53° Northeast  Level Estimated
09:19PM 27.2633 124.7534 53° Northeast  Level Estimated
09:20PM 27.3414 124.8717 53° Northeast  Level Estimated
09:21PM 27.4194 124.9901 53° Northeast  Level Estimated
09:22PM 27.4973 125.1087 53° Northeast  Level Estimated
09:23PM 27.5751 125.2274 54° Northeast  Level Estimated
09:24PM 27.6528 125.3464 54° Northeast  Level Estimated
09:25PM 27.7304 125.4655 54° Northeast  Level Estimated
09:26PM 27.8078 125.5847 54° Northeast  Level Estimated
09:27PM 27.8852 125.7042 54° Northeast  Level Estimated
09:28PM 27.9625 125.8238 54° Northeast  Level Estimated
09:29PM 28.0397 125.9436 54° Northeast  Level Estimated
09:30PM 28.1168 126.0635 54° Northeast  Level Estimated
09:31PM 28.1937 126.1836 54° Northeast  Level Estimated
09:32PM 28.2706 126.3039 54° Northeast  Level Estimated
09:33PM 28.3474 126.4244 54° Northeast  Level Estimated
09:34PM 28.4240 126.5450 54° Northeast  Level Estimated
09:35PM 28.5005 126.6658 54° Northeast  Level Estimated
09:36PM 28.5770 126.7868 54° Northeast  Level Estimated
09:37PM 28.6533 126.9080 54° Northeast  Level Estimated
09:38PM 28.7295 127.0294 54° Northeast  Level Estimated
09:39PM 28.8057 127.1509 54° Northeast  Level Estimated
09:40PM 28.8817 127.2726 54° Northeast  Level Estimated
09:41PM 28.9576 127.3944 55° Northeast  Level Estimated
09:42PM 29.0333 127.5165 55° Northeast  Level Estimated
09:43PM 29.1090 127.6387 55° Northeast  Level Estimated
09:44PM 29.1846 127.7611 55° Northeast  Level Estimated
09:45PM 29.2600 127.8838 55° Northeast  Level Estimated
09:46PM 29.3354 128.0065 55° Northeast  Level Estimated
09:47PM 29.4106 128.1295 55° Northeast  Level Estimated
09:48PM 29.4857 128.2526 55° Northeast  Level Estimated
09:49PM 29.5607 128.3759 55° Northeast  Level Estimated
09:50PM 29.6356 128.4995 55° Northeast  Level Estimated
09:51PM 29.7104 128.6231 55° Northeast  Level Estimated
09:52PM 29.7850 128.7470 55° Northeast  Level Estimated
09:53PM 29.8596 128.8711 55° Northeast  Level Estimated
09:54PM 29.9340 128.9953 55° Northeast  Level Estimated
09:55PM 30.0083 129.1197 55° Northeast  Level Estimated
09:56PM 30.0825 129.2444 55° Northeast  Level Estimated
09:57PM 30.1566 129.3692 56° Northeast  Level Estimated
09:58PM 30.2306 129.4942 56° Northeast  Level Estimated
09:59PM 30.3044 129.6193 56° Northeast  Level Estimated
10:00PM 30.3781 129.7447 56° Northeast  Level Estimated
10:01PM 30.4517 129.8703 56° Northeast  Level Estimated
10:02PM 30.5252 129.9960 56° Northeast  Level Estimated
10:03PM 30.5985 130.1219 56° Northeast  Level Estimated
10:04PM 30.6718 130.2481 56° Northeast  Level Estimated
10:05PM 30.7449 130.3744 56° Northeast  Level Estimated
10:06PM 30.8179 130.5009 56° Northeast  Level Estimated
10:07PM 30.8908 130.6276 56° Northeast  Level Estimated
10:08PM 30.9635 130.7545 56° Northeast  Level Estimated
10:09PM 31.0361 130.8816 56° Northeast  Level Estimated
10:10PM 31.1086 131.0089 56° Northeast  Level Estimated
10:11PM 31.1810 131.1363 56° Northeast  Level Estimated
10:12PM 31.2532 131.2640 56° Northeast  Level Estimated
10:13PM 31.3253 131.3919 57° Northeast  Level Estimated
10:14PM 31.3973 131.5199 57° Northeast  Level Estimated
10:15PM 31.4692 131.6482 57° Northeast  Level Estimated
10:16PM 31.5409 131.7766 57° Northeast  Level Estimated
10:17PM 31.6125 131.9053 57° Northeast  Level Estimated
10:18PM 31.6845 132.0350 57° Northeast  Level Estimated
10:19PM 31.7564 132.1650 57° Northeast  Level Estimated
10:20PM 31.8281 132.2952 57° Northeast  Level Estimated
10:21PM 31.8997 132.4255 57° Northeast  Level Estimated
10:22PM 31.9711 132.5561 57° Northeast  Level Estimated
10:23PM 32.0424 132.6868 57° Northeast  Level Estimated
10:24PM 32.1136 132.8178 57° Northeast  Level Estimated
10:25PM 32.1847 132.9490 57° Northeast  Level Estimated
10:26PM 32.2556 133.0803 57° Northeast  Level Estimated
10:27PM 32.3263 133.2119 57° Northeast  Level Estimated
10:28PM 32.3970 133.3437 58° Northeast  Level Estimated
10:29PM 32.4675 133.4757 58° Northeast  Level Estimated
10:30PM 32.5378 133.6079 58° Northeast  Level Estimated
10:31PM 32.6081 133.7403 58° Northeast  Level Estimated
10:32PM 32.6781 133.8729 58° Northeast  Level Estimated
10:33PM 32.7481 134.0058 58° Northeast  Level Estimated
10:34PM 32.8179 134.1388 58° Northeast  Level Estimated
10:35PM 32.8875 134.2720 58° Northeast  Level Estimated
10:36PM 32.9576 134.4064 58° Northeast  Level Estimated
10:37PM 33.0274 134.5410 58° Northeast  Level Estimated
10:38PM 33.0971 134.6758 58° Northeast  Level Estimated
10:39PM 33.1667 134.8109 58° Northeast  Level Estimated
10:40PM 33.2361 134.9461 58° Northeast  Level Estimated
10:41PM 33.3059 135.0825 59° Northeast  Level Estimated
10:41PM 33.2991 136.1164 76° East 543 625 39,000  Level FlightAware ADS-B (RJTK)
10:42PM 33.3755 135.2192 59° Northeast  Level Estimated
10:42PM 33.3352 136.2851 76° East 544 626 39,000  Level FlightAware ADS-B (RJTK)
10:43PM 33.3718 136.4580 76° East 542 624 39,000  Level FlightAware ADS-B (RJTK)
10:43PM 33.3963 136.5736 76° East 540 621 39,000  Level FlightAware ADS-B (RJTK)
10:44PM 33.4203 136.6886 76° East 539 620 39,000  Level FlightAware ADS-B (RJTK)
10:45PM 33.4455 136.8096 76° East 537 618 39,000  Level FlightAware ADS-B (RJTK)
10:46PM 33.4808 136.9805 76° East 533 613 39,000  Level FlightAware ADS-B (RJTK)
10:47PM 33.5044 137.0945 76° East 532 612 39,000  Level FlightAware ADS-B (RJTK)
10:47PM 33.5279 137.2090 77° East 529 609 39,000  Level FlightAware ADS-B (RJTK)
10:48PM 33.5516 137.3254 77° East 529 609 39,000  Level FlightAware ADS-B (RJTK)
10:49PM 33.5745 137.4378 77° East 529 609 39,000  Level FlightAware ADS-B (RJTK)
10:49PM 33.5962 137.5458 77° East 529 609 39,000  Level FlightAware ADS-B (RJTK)
10:50PM 33.6367 137.6586 59° Northeast 533 613 39,000  Level FlightAware ADS-B (RJTK)
10:51PM 33.6963 137.7611 56° Northeast 537 618 39,000  Level FlightAware ADS-B (RJTK)
10:51PM 33.7490 137.8532 53° Northeast 536 617 39,000 -240 Level FlightAware ADS-B (RJTK)
10:52PM 33.7858 137.8991 42° Northeast 522 601 38,800 -1,260 Descending FlightAware ADS-B (RJTK)
10:53PM 33.9139 137.9682 12° North 490 564 37,300 -1,140 Descending FlightAware ADS-B (RJTK)
10:53PM 34.0020 137.9911 12° North 497 572 36,900 -1,800 Descending FlightAware ADS-B (RJTK)
10:54PM 34.0898 138.0276 30° Northeast 540 621 35,000 -2,400 Descending FlightAware ADS-B (RJTK)
10:54PM 34.1295 138.0630 42° Northeast 543 625 34,500 -1,680 Descending FlightAware ADS-B (RJTK)
10:55PM 34.1626 138.1098 55° Northeast 538 619 33,900 -1,800 Descending FlightAware ADS-B (RJTK)
10:55PM 34.1858 138.1650 69° East 527 606 33,300 -1,980 Descending FlightAware ADS-B (RJTK)
10:55PM 34.2165 138.2704 72° East 522 601 32,000 -1,680 Descending FlightAware ADS-B (RJTK)
10:57PM 34.3177 138.5765 66° East 484 557 29,000 -1,440 Descending FlightAware ADS-B (RJTK)
10:58PM 34.4140 138.4893 42° Northeast  Level Estimated
10:58PM 34.3539 138.6758 68° East 476 548 28,200  Level FlightAware ADS-B (RJTK)
10:59PM 34.3899 138.7782 67° East 495 570 25,900 -2,820 Descending FlightAware ADS-B (RJTK)
11:00PM 34.4436 138.9335 69° East 480 552 23,400 -2,340 Descending FlightAware ADS-B (RJTK)
11:00PM 34.4746 139.0232 68° East 471 542 22,200 -2,160 Descending FlightAware ADS-B (RJTK)
11:01PM 34.5209 139.1548 67° East 457 526 20,200 -1,680 Descending FlightAware ADS-B (RJTK)
11:02PM 34.5715 139.3014 68° East 444 511 19,000 -720 Descending FlightAware ADS-B (RJTK)
11:03PM 34.6040 139.3957 67° East 453 521 19,000 -540 Level FlightAware ADS-B (RJTK)
11:04PM 34.6406 139.5016 68° East 442 509 18,300 -1,620 Descending FlightAware ADS-B (RJTK)
11:05PM 34.7272 139.6610 49° Northeast 414 476 15,700 -2,040 Descending FlightAware ADS-B (RJTK)
11:06PM 34.7817 139.7345 48° Northeast 414 476 14,200 -1,980 Descending FlightAware ADS-B (RJTK)
11:07PM 34.8317 139.8039 47° Northeast 400 460 13,000 -1,980 Descending FlightAware ADS-B (RJTK)
11:07PM 34.8578 139.8278 32° Northeast 377 434 12,300 -1,860 Descending FlightAware ADS-B (RJTK)
11:08PM 34.9179 139.8697 29° Northeast 334 384 11,200 -1,620 Descending FlightAware ADS-B (RJTK)
11:08PM 34.9722 139.9035 23° Northeast 312 359 10,100 -1,980 Descending FlightAware ADS-B (RJTK)
11:08PM 34.9974 139.9140 16° North 303 349 9,300 -2,220 Descending FlightAware ADS-B (RJTK)
11:09PM 35.0245 139.9216 12° North 300 345 8,700 -1,500 Descending FlightAware ADS-B (RJTK)
11:10PM 35.0790 139.9354 12° North 294 338 7,800 -1,320 Descending FlightAware ADS-B (RJTK)
11:10PM 35.1053 139.9422 12° North 283 326 7,400 -1,380 Descending FlightAware ADS-B (RJTK)
11:10PM 35.1323 139.9494 13° North 280 322 6,900 -1,440 Descending FlightAware ADS-B (RJTK)
11:11PM 35.2093 139.9704 13° North 281 323 5,500 -1,200 Descending FlightAware ADS-B (RJTK)
11:12PM 35.2360 139.9776 11° North 276 318 5,300 -240 Descending FlightAware ADS-B (RJTK)
11:13PM 35.3190 139.9400 329° Northwest 208 239 5,100 -360 Descending FlightAware ADS-B (RJTK)
11:13PM 35.3360 139.9276 330° Northwest 203 234 4,700 -1,080 Descending FlightAware ADS-B (RJTK)
11:14PM 35.3520 139.9163 329° Northwest 192 221 4,400 -1,080 Descending FlightAware ADS-B (RJTK)
11:14PM 35.3683 139.9049 329° Northwest 189 217 4,000 -1,080 Descending FlightAware ADS-B (RJTK)
11:14PM 35.3832 139.8942 329° Northwest 188 216 3,700 -960 Descending FlightAware ADS-B (RJTK)
11:15PM 35.3986 139.8834 328° Northwest 187 215 3,400 -1,080 Descending FlightAware ADS-B (RJTK)
11:15PM 35.4147 139.8720 329° Northwest 187 215 3,000 -1,080 Descending FlightAware ADS-B (RJTK)
11:15PM 35.4300 139.8613 330° Northwest 189 217 2,700 -1,080 Descending FlightAware ADS-B (RJTK)
11:16PM 35.4449 139.8507 330° Northwest 187 215 2,300 -1,080 Descending FlightAware ADS-B (RJTK)
11:16PM 35.4590 139.8407 329° Northwest 172 198 2,000 -780 Descending FlightAware ADS-B (RJTK)
11:16PM 35.4721 139.8314 330° Northwest 170 196 1,800 -840 Descending FlightAware ADS-B (RJTK)
11:17PM 35.4971 139.8137 329° Northwest 136 157 1,200 -840 Descending FlightAware ADS-B (RJTK)
11:17PM 35.5079 139.8060 328° Northwest 133 153 1,000 -720 Descending FlightAware ADS-B (RJTK)
11:17PM 35.5177 139.7990 328° Northwest 132 152 800 -720 Descending FlightAware ADS-B (RJTK)
11:18PM 35.5356 139.7864 328° Northwest 131 151 400 -720 Descending FlightAware ADS-B (RJTK)